Scarborough, Canada
Current Conditions -  °F | °C
As of 5:00 AM on Sunday 23 Nov 2014 (Local Time) from CYKZ Reporting Station
Haze Haze  
Wind Chill: 36°   Ceiling: 1300
Heat Index: 39°   Visibility: 6mi
Dew Point: 39°   Wind: 5mph
Humidity: 100%   Direction: 200°SSW
Pressure: 29.96"   Gusts: NA
Location:  43.77°N, 79.26°W
Report Text: CYKZ 231000Z 20004KT 6SM BR OVC013 04/04 A2996 RMK ST8 SLP151
Loading
Personal Weather Stations






























Interactive Weather Map New forecast layout! Learn more

10-Day Weather Forecast

Advertisements
Track Severe Weather on mobile